This is the latest recevied weather packets stored in our database for station/object DH9NFM-12. If no packets are shown the sender has not sent any weather packets the latest 10 day(s).
| Time | Temp. | Humidity | Pressure | Rain* | Wind** | Luminosity | Snow |
|---|---|---|---|---|---|---|---|
| 1777981933 | 20° C | 71% | 1006.8 hPa | 0 mm | - | - | - |
| 1777981309 | 18.89° C | 74% | 1006.9 hPa | 0 mm | - | - | - |
| 1777980684 | 19.44° C | 72% | 1006.9 hPa | 0 mm | - | - | - |
| 1777980059 | 20° C | 74% | 1007.1 hPa | 0 mm | - | - | - |
| 1777979435 | 18.89° C | 75% | 1007.1 hPa | 0 mm | - | - | - |
| 1777978810 | 18.89° C | 73% | 1007.1 hPa | 0 mm | - | - | - |
| 1777978185 | 19.44° C | 76% | 1007.2 hPa | 0 mm | - | - | - |
| 1777977561 | 20.56° C | 70% | 1007.3 hPa | 0 mm | - | - | - |
| 1777976936 | 20° C | 69% | 1007.4 hPa | 0 mm | - | - | - |
| 1777976311 | 18.89° C | 72% | 1007.5 hPa | 0 mm | - | - | - |
| 1777975687 | 19.44° C | 72% | 1007.6 hPa | 0 mm | - | - | - |
| 1777975062 | 20° C | 67% | 1007.6 hPa | 0 mm | - | - | - |
| 1777974438 | 21.11° C | 66% | 1007.7 hPa | 0 mm | - | - | - |
| 1777973813 | 20.56° C | 71% | 1007.7 hPa | 0 mm | - | - | - |
| 1777973188 | 20° C | 75% | 1007.8 hPa | 0 mm | - | - | - |
| 1777972564 | 19.44° C | 84% | 1007.9 hPa | 0 mm | - | - | - |
| 1777971939 | 18.89° C | 86% | 1008 hPa | 0.25 mm | - | - | - |
| 1777971314 | 18.89° C | 95% | 1008.1 hPa | 0.25 mm | - | - | - |
| 1777970690 | 18.89° C | 10% | - | 0.25 mm | - | - | - |
| 1777970065 | 18.33° C | 10% | - | 0 mm | - | - | - |
| 1777969440 | 17.22° C | 10% | - | 0 mm | - | - | - |
| 1777968815 | 16.67° C | 10% | - | 0 mm | - | - | - |
| 1777968190 | 16.11° C | 10% | - | 0 mm | - | - | - |
| 1777967566 | 15.56° C | 10% | - | 0 mm | - | - | - |
| 1777966941 | 15.56° C | 10% | - | 0 mm | - | - | - |
* Rain latest hour (hover to see other rain measurements)
** Current wind speed in m/s (hover to see current wind gust speed)